Time;durP1;ratioP1;P1;durP2;ratioP2;P2;SDS_P1;SDS_P2;PMS_P1;PMS_P2;Temp;Humidity;BMP_temperature;BMP_pressure;BME280_temperature;BME280_humidity;BME280_pressure;Samples;Min_cycle;Max_cycle;Signal;HPM_P1;HPM_P2
2021/04/19 00:00:27;;;;;;;;;;;6.10;99.90;;;;;;5048666;28;19929;-87
2021/04/19 00:02:54;;;;;;;;;;;6.00;99.90;;;;;;5061358;28;19932;-85
2021/04/19 00:05:23;;;;;;;;;;;6.00;99.90;;;;;;5054687;28;19975;-85
2021/04/19 00:07:52;;;;;;;;;;;6.00;99.90;;;;;;5033031;28;19925;-89
2021/04/19 00:10:19;;;;;;;;;;;5.90;99.90;;;;;;5039398;28;20307;-88
2021/04/19 00:12:48;;;;;;;;;;;5.80;99.90;;;;;;5049605;28;19932;-86
2021/04/19 00:15:16;;;;;;;;;;;5.70;99.90;;;;;;5051440;28;19928;-87
2021/04/19 00:17:43;;;;;;;;;;;5.80;99.90;;;;;;5053797;28;19955;-85
2021/04/19 00:20:11;;;;;;;;;;;5.80;99.90;;;;;;5056541;28;19935;-86
2021/04/19 00:22:38;;;;;;;;;;;5.70;99.90;;;;;;5056364;28;19925;-86
2021/04/19 00:25:06;;;;;;;;;;;5.70;99.90;;;;;;5056531;28;19925;-91
2021/04/19 00:27:34;;;;;;;;;;;5.70;99.90;;;;;;5061266;28;19940;-87
2021/04/19 00:30:03;;;;;;;;;;;5.30;99.90;;;;;;5059340;28;19932;-87
2021/04/19 00:32:30;;;;;;;;;;;5.50;99.90;;;;;;5064036;28;19999;-88
2021/04/19 00:34:59;;;;;;;;;;;5.50;99.90;;;;;;5041135;28;19925;-86
2021/04/19 00:37:27;;;;;;;;;;;5.50;99.90;;;;;;5054510;28;19959;-87
2021/04/19 00:39:54;;;;;;;;;;;5.40;99.90;;;;;;5072061;28;19952;-85
2021/04/19 00:42:21;;;;;;;;;;;5.30;99.90;;;;;;5060840;28;19936;-88
2021/04/19 00:44:49;;;;;;;;;;;5.30;99.90;;;;;;5064127;28;19944;-88
2021/04/19 00:47:16;;;;;;;;;;;5.20;99.90;;;;;;5075802;28;20236;-86
2021/04/19 00:49:43;;;;;;;;;;;4.70;99.90;;;;;;5062130;28;19932;-84
2021/04/19 00:52:11;;;;;;;;;;;5.30;99.90;;;;;;5041386;28;20395;-86
2021/04/19 00:54:38;;;;;;;;;;;5.30;99.90;;;;;;5060898;28;19946;-87
2021/04/19 00:57:08;;;;;;;;;;;5.30;99.90;;;;;;5056816;28;19925;-84
2021/04/19 00:59:35;;;;;;;;;;;5.30;99.90;;;;;;5050737;28;19936;-86
2021/04/19 01:02:03;;;;;;;;;;;5.10;99.90;;;;;;5059463;28;19925;-87
2021/04/19 01:04:33;;;;;;;;;;;5.30;99.90;;;;;;5041392;28;20015;-87
2021/04/19 01:07:01;;;;;;;;;;;5.10;99.90;;;;;;5050842;28;20289;-86
2021/04/19 01:09:30;;;;;;;;;;;5.10;99.90;;;;;;5055118;28;19931;-86
2021/04/19 01:11:57;;;;;;;;;;;5.10;99.90;;;;;;5069447;28;20391;-84
2021/04/19 01:14:24;;;;;;;;;;;5.00;99.90;;;;;;5048424;28;19935;-84
2021/04/19 01:16:52;;;;;;;;;;;4.90;99.90;;;;;;5078100;28;20175;-85
2021/04/19 01:19:19;;;;;;;;;;;5.00;99.90;;;;;;5074849;28;19935;-86
2021/04/19 01:21:48;;;;;;;;;;;5.00;99.90;;;;;;5026682;28;19936;-86
2021/04/19 01:24:15;;;;;;;;;;;5.00;99.90;;;;;;5038882;28;19929;-85
2021/04/19 01:26:43;;;;;;;;;;;5.10;99.90;;;;;;5045586;28;19929;-85
2021/04/19 01:29:11;;;;;;;;;;;4.90;99.90;;;;;;5027403;28;19925;-84
2021/04/19 01:31:39;;;;;;;;;;;5.10;99.90;;;;;;5038882;28;19928;-84
2021/04/19 01:34:10;;;;;;;;;;;5.10;99.90;;;;;;5040355;28;20387;-82
2021/04/19 01:36:39;;;;;;;;;;;5.10;99.90;;;;;;5054313;28;19928;-85
2021/04/19 01:39:09;;;;;;;;;;;5.00;99.90;;;;;;5053650;28;19924;-85
2021/04/19 01:41:36;;;;;;;;;;;5.00;99.90;;;;;;5047220;28;19925;-84
2021/04/19 01:44:05;;;;;;;;;;;5.00;99.90;;;;;;5044644;28;19928;-85
2021/04/19 01:46:32;;;;;;;;;;;5.20;99.90;;;;;;5047179;28;19924;-85
2021/04/19 01:48:59;;;;;;;;;;;4.90;99.90;;;;;;5077937;28;19929;-85
2021/04/19 01:51:29;;;;;;;;;;;4.80;99.90;;;;;;5058282;28;19952;-86
2021/04/19 01:53:57;;;;;;;;;;;4.80;99.90;;;;;;5051126;28;20272;-84
2021/04/19 01:56:24;;;;;;;;;;;4.80;99.90;;;;;;5029159;28;19935;-85
2021/04/19 01:58:52;;;;;;;;;;;4.80;99.90;;;;;;5054889;28;19932;-87
2021/04/19 02:01:19;;;;;;;;;;;4.80;99.90;;;;;;5021627;28;19929;-86
2021/04/19 02:03:52;;;;;;;;;;;4.70;99.90;;;;;;5055289;28;19925;-85
2021/04/19 02:06:43;;;;;;;;;;;4.70;99.90;;;;;;5039167;28;19940;-85
2021/04/19 02:09:17;;;;;;;;;;;4.70;99.90;;;;;;5040775;28;19931;-84
2021/04/19 02:11:48;;;;;;;;;;;4.70;99.90;;;;;;5077590;28;19928;-86
2021/04/19 02:14:15;;;;;;;;;;;4.60;99.90;;;;;;5052116;28;19929;-85
2021/04/19 02:16:46;;;;;;;;;;;4.70;99.90;;;;;;5025496;28;19932;-84
2021/04/19 02:19:24;;;;;;;;;;;4.70;99.90;;;;;;5059014;28;19924;-87
2021/04/19 02:21:54;;;;;;;;;;;4.70;99.90;;;;;;5046664;28;19925;-84
2021/04/19 02:24:23;;;;;;;;;;;4.60;99.90;;;;;;5058717;28;19925;-86
2021/04/19 02:26:54;;;;;;;;;;;4.50;99.90;;;;;;5057323;28;19928;-89
2021/04/19 02:29:33;;;;;;;;;;;4.50;99.90;;;;;;5041344;28;19931;-86
2021/04/19 02:32:12;;;;;;;;;;;4.50;99.90;;;;;;5041672;28;19936;-87
2021/04/19 02:34:44;;;;;;;;;;;4.50;99.90;;;;;;5058620;28;20376;-85
2021/04/19 02:37:13;;;;;;;;;;;4.50;99.90;;;;;;5057346;28;19932;-87
2021/04/19 02:39:44;;;;;;;;;;;4.50;99.90;;;;;;5020434;28;19925;-85
2021/04/19 02:42:11;;;;;;;;;;;4.40;99.90;;;;;;5065909;28;19928;-87
2021/04/19 02:44:40;;;;;;;;;;;4.40;99.90;;;;;;5028550;28;19930;-86
2021/04/19 02:47:28;;;;;;;;;;;4.40;99.90;;;;;;5039645;28;19924;-86
2021/04/19 02:50:15;;;;;;;;;;;4.40;99.90;;;;;;5042155;28;19925;-84
2021/04/19 02:52:44;;;;;;;;;;;4.40;99.90;;;;;;5071561;28;19923;-87
2021/04/19 02:55:13;;;;;;;;;;;4.40;99.90;;;;;;5073312;28;19928;-85
2021/04/19 02:57:58;;;;;;;;;;;4.20;99.90;;;;;;5071881;28;19915;-87
2021/04/19 03:00:27;;;;;;;;;;;4.20;99.90;;;;;;5078317;28;19927;-86
2021/04/19 03:02:59;;;;;;;;;;;4.10;99.90;;;;;;5074599;28;19932;-87
2021/04/19 03:05:28;;;;;;;;;;;4.00;99.90;;;;;;5070951;28;19924;-88
2021/04/19 03:08:01;;;;;;;;;;;4.00;99.90;;;;;;5077212;28;19925;-86
2021/04/19 03:10:31;;;;;;;;;;;4.00;99.90;;;;;;5079802;28;19931;-85
2021/04/19 03:12:59;;;;;;;;;;;4.00;99.90;;;;;;5068228;28;20472;-83
2021/04/19 03:15:31;;;;;;;;;;;4.00;99.90;;;;;;5062478;28;19935;-88
2021/04/19 03:18:19;;;;;;;;;;;3.90;99.90;;;;;;5064854;28;19925;-89
2021/04/19 03:21:04;;;;;;;;;;;3.90;99.90;;;;;;5063251;28;19925;-89
2021/04/19 03:23:40;;;;;;;;;;;3.80;99.90;;;;;;5034109;28;19933;-87
2021/04/19 03:26:08;;;;;;;;;;;3.70;99.90;;;;;;5040445;28;19939;-85
2021/04/19 03:28:37;;;;;;;;;;;3.70;99.90;;;;;;5050447;28;20020;-88
2021/04/19 03:31:27;;;;;;;;;;;3.80;99.90;;;;;;5065197;28;19932;-88
2021/04/19 03:34:06;;;;;;;;;;;3.70;99.90;;;;;;5041614;28;19929;-88
2021/04/19 03:36:37;;;;;;;;;;;3.70;99.90;;;;;;5072099;28;19924;-88
2021/04/19 03:39:07;;;;;;;;;;;3.70;99.90;;;;;;5073277;28;19929;-88
2021/04/19 03:41:40;;;;;;;;;;;3.60;99.90;;;;;;5070169;28;19931;-89
2021/04/19 03:44:11;;;;;;;;;;;3.70;99.90;;;;;;5068180;28;19980;-88
2021/04/19 03:46:41;;;;;;;;;;;3.70;99.90;;;;;;5075235;28;19935;-88
2021/04/19 03:49:26;;;;;;;;;;;3.70;99.90;;;;;;5087963;28;19942;-88
2021/04/19 03:52:04;;;;;;;;;;;3.80;99.90;;;;;;5054928;28;19929;-87
2021/04/19 03:54:34;;;;;;;;;;;3.80;99.90;;;;;;5090520;28;19928;-88
2021/04/19 03:57:05;;;;;;;;;;;3.70;99.90;;;;;;5079687;28;19925;-87
2021/04/19 03:59:34;;;;;;;;;;;3.70;99.90;;;;;;5073107;28;19909;-88
2021/04/19 04:02:09;;;;;;;;;;;3.60;99.90;;;;;;5072039;28;19925;-89
2021/04/19 04:04:58;;;;;;;;;;;3.50;99.90;;;;;;5053223;28;19925;-88
2021/04/19 04:07:48;;;;;;;;;;;3.60;99.90;;;;;;5071399;28;19924;-91
2021/04/19 04:10:18;;;;;;;;;;;3.50;99.90;;;;;;5072463;28;19925;-89
2021/04/19 04:12:47;;;;;;;;;;;3.50;99.90;;;;;;5055246;28;19929;-89
2021/04/19 04:15:14;;;;;;;;;;;3.50;99.90;;;;;;5058866;28;19932;-89
2021/04/19 04:17:47;;;;;;;;;;;3.40;99.90;;;;;;5062323;28;19936;-89
2021/04/19 04:20:26;;;;;;;;;;;3.40;99.90;;;;;;5053084;28;19928;-91
2021/04/19 04:23:01;;;;;;;;;;;3.40;99.90;;;;;;5071299;28;19929;-88
2021/04/19 04:25:35;;;;;;;;;;;3.30;99.90;;;;;;5069431;28;19935;-89
2021/04/19 04:28:04;;;;;;;;;;;3.30;99.90;;;;;;5069344;28;20016;-91
2021/04/19 04:30:42;;;;;;;;;;;3.30;99.90;;;;;;5070800;28;19920;-90
2021/04/19 04:33:30;;;;;;;;;;;3.30;99.90;;;;;;5059271;28;19924;-90
2021/04/19 04:36:07;;;;;;;;;;;3.30;99.90;;;;;;5056359;28;19925;-90
2021/04/19 04:38:35;;;;;;;;;;;3.20;99.90;;;;;;5072664;28;19921;-91
2021/04/19 04:41:08;;;;;;;;;;;3.20;99.90;;;;;;5073074;28;19943;-89
2021/04/19 04:43:37;;;;;;;;;;;3.10;99.90;;;;;;5048712;28;19924;-90
2021/04/19 04:46:08;;;;;;;;;;;3.10;99.90;;;;;;5069631;28;19929;-91
2021/04/19 04:48:44;;;;;;;;;;;3.00;99.90;;;;;;5078304;28;19928;-90
2021/04/19 04:51:16;;;;;;;;;;;3.30;99.90;;;;;;5058986;28;19924;-91
2021/04/19 04:53:44;;;;;;;;;;;2.90;99.90;;;;;;5072878;28;19936;-90
2021/04/19 04:56:16;;;;;;;;;;;3.10;99.90;;;;;;5037618;28;19924;-90
2021/04/19 04:58:44;;;;;;;;;;;3.10;99.90;;;;;;5029615;28;19929;-89
2021/04/19 05:01:12;;;;;;;;;;;3.10;99.90;;;;;;5050731;28;20363;-88
2021/04/19 05:03:40;;;;;;;;;;;3.00;99.90;;;;;;5052372;28;19928;-90
2021/04/19 05:06:12;;;;;;;;;;;3.10;99.90;;;;;;5051074;28;19936;-90
2021/04/19 05:08:40;;;;;;;;;;;3.10;99.90;;;;;;5046260;28;19932;-88
2021/04/19 05:11:09;;;;;;;;;;;3.10;99.90;;;;;;5053335;28;20303;-88
2021/04/19 05:13:36;;;;;;;;;;;3.10;99.90;;;;;;5049161;28;19925;-91
2021/04/19 05:16:04;;;;;;;;;;;3.20;99.90;;;;;;5053601;28;19929;-90
2021/04/19 05:18:31;;;;;;;;;;;3.20;99.90;;;;;;5052312;28;19948;-89
2021/04/19 05:20:59;;;;;;;;;;;3.10;99.90;;;;;;5052062;28;19925;-90
2021/04/19 05:23:27;;;;;;;;;;;3.30;99.90;;;;;;5053842;28;19924;-90
2021/04/19 05:26:02;;;;;;;;;;;3.30;99.90;;;;;;5054055;28;19925;-92
2021/04/19 05:28:29;;;;;;;;;;;3.30;99.90;;;;;;5053416;28;19931;-91
2021/04/19 05:30:56;;;;;;;;;;;3.40;99.90;;;;;;5051200;28;19925;-88
2021/04/19 05:33:24;;;;;;;;;;;;;;;;;;5052206;28;19929;-90
2021/04/19 05:35:51;;;;;;;;;;;3.30;99.90;;;;;;5036534;28;20002;-93
2021/04/19 05:38:21;;;;;;;;;;;3.30;99.90;;;;;;5058831;28;19925;-88
2021/04/19 05:40:59;;;;;;;;;;;3.30;99.90;;;;;;5064512;28;19925;-86
2021/04/19 05:43:26;;;;;;;;;;;3.40;99.90;;;;;;5074333;28;19925;-93
2021/04/19 05:45:54;;;;;;;;;;;3.40;99.90;;;;;;5028859;28;19944;-94
2021/04/19 05:48:21;;;;;;;;;;;3.40;99.90;;;;;;5065149;28;19929;-96
2021/04/19 05:50:49;;;;;;;;;;;3.50;99.90;;;;;;5043457;28;19929;-95
2021/04/19 05:53:19;;;;;;;;;;;4.20;99.90;;;;;;5063605;28;19925;-94
2021/04/19 05:55:46;;;;;;;;;;;3.70;99.90;;;;;;5028762;28;19948;-93
2021/04/19 05:58:14;;;;;;;;;;;3.80;99.90;;;;;;5059400;28;19940;-93
2021/04/19 06:01:08;;;;;;;;;;;3.90;99.90;;;;;;5059611;28;19932;-92
2021/04/19 06:03:50;;;;;;;;;;;4.10;99.90;;;;;;5048672;28;19932;-93
2021/04/19 06:06:36;;;;;;;;;;;6.10;99.90;;;;;;5042471;28;19948;-87
2021/04/19 06:09:10;;;;;;;;;;;4.40;99.90;;;;;;5044105;28;19936;-90
2021/04/19 06:11:54;;;;;;;;;;;4.50;99.90;;;;;;5053630;28;19929;-90
2021/04/19 06:14:35;;;;;;;;;;;4.70;99.90;;;;;;5053993;28;20073;-92
2021/04/19 06:17:03;;;;;;;;;;;4.90;99.90;;;;;;5054082;28;19919;-92
2021/04/19 06:19:32;;;;;;;;;;;4.90;99.90;;;;;;5048804;28;19928;-92
2021/04/19 06:21:59;;;;;;;;;;;5.00;99.90;;;;;;5050096;28;19928;-91
2021/04/19 06:24:27;;;;;;;;;;;5.00;99.90;;;;;;5046990;28;20180;-90
2021/04/19 06:26:54;;;;;;;;;;;5.40;99.90;;;;;;5028630;28;19929;-94
2021/04/19 06:29:28;;;;;;;;;;;5.40;99.90;;;;;;5051766;28;19947;-93
2021/04/19 06:31:57;;;;;;;;;;;5.80;99.90;;;;;;5044833;28;20356;-87
2021/04/19 06:34:24;;;;;;;;;;;5.50;99.90;;;;;;5044739;28;20581;-87
2021/04/19 06:36:53;;;;;;;;;;;5.70;99.90;;;;;;5043146;28;19932;-91
2021/04/19 06:39:20;;;;;;;;;;;6.00;99.90;;;;;;5029689;28;19936;-87
2021/04/19 06:41:49;;;;;;;;;;;6.10;99.90;;;;;;5048744;28;19932;-88
2021/04/19 06:44:16;;;;;;;;;;;6.20;99.90;;;;;;5068994;28;19935;-84
2021/04/19 06:46:44;;;;;;;;;;;6.30;99.90;;;;;;5030157;28;19924;-82
2021/04/19 06:49:15;;;;;;;;;;;6.30;99.90;;;;;;5045714;28;19935;-82
2021/04/19 06:51:43;;;;;;;;;;;6.80;99.90;;;;;;5037186;28;19925;-81
2021/04/19 06:54:10;;;;;;;;;;;6.40;99.90;;;;;;5038376;28;19940;-83
2021/04/19 06:56:46;;;;;;;;;;;7.60;99.90;;;;;;5042593;28;19925;-83
2021/04/19 06:59:14;;;;;;;;;;;6.70;99.90;;;;;;5035124;28;20005;-83
2021/04/19 07:01:42;;;;;;;;;;;6.80;99.90;;;;;;5038122;28;19925;-84
2021/04/19 07:04:15;;;;;;;;;;;6.80;99.90;;;;;;5045195;28;19928;-82
2021/04/19 07:06:43;;;;;;;;;;;7.00;99.90;;;;;;5039631;28;20380;-82
2021/04/19 07:09:30;;;;;;;;;;;7.10;99.90;;;;;;5046563;28;19928;-82
2021/04/19 07:12:05;;;;;;;;;;;7.60;99.90;;;;;;5040457;28;19925;-82
2021/04/19 07:14:34;;;;;;;;;;;5.60;99.90;;;;;;5038814;28;19925;-82
2021/04/19 07:17:03;;;;;;;;;;;7.50;99.90;;;;;;5042861;28;20375;-84
2021/04/19 07:19:31;;;;;;;;;;;7.30;99.90;;;;;;5042470;28;19932;-85
2021/04/19 07:21:59;;;;;;;;;;;7.40;99.90;;;;;;5044287;28;19929;-83
2021/04/19 07:24:27;;;;;;;;;;;7.30;99.90;;;;;;5046012;28;20383;-82
2021/04/19 07:26:55;;;;;;;;;;;7.50;99.90;;;;;;5048364;28;19933;-81
2021/04/19 07:29:24;;;;;;;;;;;7.30;99.90;;;;;;5051620;28;19936;-94
2021/04/19 07:31:53;;;;;;;;;;;7.40;99.90;;;;;;5049531;28;19925;-83
2021/04/19 07:34:27;;;;;;;;;;;7.50;99.90;;;;;;5019817;28;20336;-82
2021/04/19 07:36:58;;;;;;;;;;;7.50;99.90;;;;;;5047215;28;19933;-83
2021/04/19 07:39:26;;;;;;;;;;;6.10;99.90;;;;;;5049982;28;19947;-83
2021/04/19 07:41:55;;;;;;;;;;;7.60;99.90;;;;;;5033468;28;19925;-83
2021/04/19 07:44:32;;;;;;;;;;;7.50;99.90;;;;;;5048051;28;19946;-83
2021/04/19 07:47:18;;;;;;;;;;;7.50;99.90;;;;;;5049609;28;19941;-84
2021/04/19 07:49:55;;;;;;;;;;;7.60;99.90;;;;;;5048435;28;19935;-83
2021/04/19 07:52:22;;;;;;;;;;;7.60;99.90;;;;;;5041625;28;19936;-84
2021/04/19 07:55:02;;;;;;;;;;;7.60;99.90;;;;;;5055209;28;19944;-80
2021/04/19 07:57:30;;;;;;;;;;;7.70;99.90;;;;;;5064948;28;19936;-84
2021/04/19 07:59:57;;;;;;;;;;;7.70;99.90;;;;;;5051798;28;19932;-84
2021/04/19 08:02:26;;;;;;;;;;;7.70;99.90;;;;;;5050616;28;19925;-83
2021/04/19 08:04:53;;;;;;;;;;;7.90;99.90;;;;;;5057683;28;20388;-85
2021/04/19 08:07:22;;;;;;;;;;;7.80;99.90;;;;;;5035464;28;19925;-83
2021/04/19 08:09:53;;;;;;;;;;;7.90;99.90;;;;;;5034763;28;19936;-84
2021/04/19 08:12:30;;;;;;;;;;;8.00;99.90;;;;;;5053210;28;19928;-85
2021/04/19 08:14:57;;;;;;;;;;;8.10;99.90;;;;;;5033528;28;19973;-84
2021/04/19 08:17:28;;;;;;;;;;;8.20;99.90;;;;;;5031267;28;19940;-84
2021/04/19 08:19:58;;;;;;;;;;;8.30;99.90;;;;;;5047907;28;20393;-85
2021/04/19 08:22:27;;;;;;;;;;;8.30;99.90;;;;;;5043814;28;19940;-85
2021/04/19 08:25:12;;;;;;;;;;;8.50;99.90;;;;;;5049434;28;20296;-85
2021/04/19 08:27:40;;;;;;;;;;;8.50;99.90;;;;;;5050153;28;19928;-84
2021/04/19 08:30:09;;;;;;;;;;;8.60;99.90;;;;;;5048077;28;19928;-85
2021/04/19 08:32:36;;;;;;;;;;;8.60;99.90;;;;;;5049079;28;19924;-85
2021/04/19 08:35:07;;;;;;;;;;;8.70;99.90;;;;;;5028564;28;19929;-85
2021/04/19 08:37:35;;;;;;;;;;;8.80;99.90;;;;;;5039725;28;20371;-85
2021/04/19 08:40:03;;;;;;;;;;;8.90;99.90;;;;;;5039683;28;19925;-85
2021/04/19 08:42:32;;;;;;;;;;;8.90;99.90;;;;;;5049674;28;19932;-85
2021/04/19 08:45:00;;;;;;;;;;;9.00;99.90;;;;;;5045832;28;19932;-85
2021/04/19 08:47:30;;;;;;;;;;;9.00;99.90;;;;;;5047781;28;20389;-85
2021/04/19 08:49:58;;;;;;;;;;;9.30;99.90;;;;;;5048210;28;20592;-85
2021/04/19 08:52:26;;;;;;;;;;;9.20;99.90;;;;;;5043104;28;19932;-84
2021/04/19 08:54:54;;;;;;;;;;;9.40;99.90;;;;;;5047846;28;19925;-87
2021/04/19 08:57:21;;;;;;;;;;;9.50;99.90;;;;;;5039735;28;20012;-83
2021/04/19 08:59:49;;;;;;;;;;;9.40;99.90;;;;;;5042799;28;19933;-84
2021/04/19 09:02:17;;;;;;;;;;;9.70;99.90;;;;;;5046351;28;20475;-87
2021/04/19 09:05:03;;;;;;;;;;;9.80;99.90;;;;;;5026746;28;19940;-87
2021/04/19 09:07:35;;;;;;;;;;;10.00;99.90;;;;;;5041046;28;20304;-86
2021/04/19 09:10:04;;;;;;;;;;;9.80;99.90;;;;;;5044972;28;19925;-85
2021/04/19 09:12:31;;;;;;;;;;;10.10;99.90;;;;;;5044342;28;19925;-86
2021/04/19 09:15:07;;;;;;;;;;;10.20;99.90;;;;;;5049239;28;19936;-85
2021/04/19 09:17:34;;;;;;;;;;;10.40;99.90;;;;;;5037620;28;20316;-85
2021/04/19 09:20:02;;;;;;;;;;;10.50;99.90;;;;;;5047052;28;20047;-85
2021/04/19 09:22:29;;;;;;;;;;;10.50;99.90;;;;;;5049744;28;20023;-85
2021/04/19 09:25:02;;;;;;;;;;;10.90;99.90;;;;;;5049690;28;19925;-86
2021/04/19 09:27:41;;;;;;;;;;;10.90;99.90;;;;;;5048901;28;19924;-85
2021/04/19 09:30:29;;;;;;;;;;;10.90;99.90;;;;;;5061642;28;19932;-88
2021/04/19 09:33:03;;;;;;;;;;;11.00;99.90;;;;;;5038896;28;19925;-85
2021/04/19 09:35:39;;;;;;;;;;;11.00;99.90;;;;;;5047122;28;19929;-86
2021/04/19 09:38:07;;;;;;;;;;;11.10;99.90;;;;;;5048669;28;19932;-85
2021/04/19 09:40:47;;;;;;;;;;;11.30;99.90;;;;;;5050027;28;19940;-86
2021/04/19 09:43:32;;;;;;;;;;;11.30;99.90;;;;;;5035833;28;20395;-87
2021/04/19 09:46:05;;;;;;;;;;;11.30;99.90;;;;;;5049162;28;20297;-86
2021/04/19 09:48:47;;;;;;;;;;;11.40;99.90;;;;;;5047506;28;19934;-84
2021/04/19 09:51:18;;;;;;;;;;;11.50;99.90;;;;;;5049347;28;19925;-86
2021/04/19 09:54:05;;;;;;;;;;;11.50;99.90;;;;;;5046922;28;19933;-89
2021/04/19 09:56:38;;;;;;;;;;;11.60;99.90;;;;;;5044119;28;19929;-86
2021/04/19 09:59:09;;;;;;;;;;;11.60;99.90;;;;;;5042547;28;20590;-87
2021/04/19 10:01:36;;;;;;;;;;;11.70;99.90;;;;;;5046605;28;19924;-87
2021/04/19 10:04:04;;;;;;;;;;;11.80;99.90;;;;;;5043159;28;19951;-87
2021/04/19 10:06:40;;;;;;;;;;;11.90;99.90;;;;;;5048726;28;19933;-87
2021/04/19 10:09:09;;;;;;;;;;;12.20;99.90;;;;;;5045481;28;19925;-86
2021/04/19 10:11:39;;;;;;;;;;;12.00;99.90;;;;;;5047591;28;20288;-86
2021/04/19 10:14:11;;;;;;;;;;;12.10;99.90;;;;;;5045065;28;19935;-86
2021/04/19 10:16:42;;;;;;;;;;;12.30;99.90;;;;;;5044625;28;19924;-87
2021/04/19 10:19:10;;;;;;;;;;;12.30;99.90;;;;;;5044681;28;19932;-86
2021/04/19 10:21:38;;;;;;;;;;;12.30;99.90;;;;;;5047851;28;19929;-87
2021/04/19 10:24:13;;;;;;;;;;;12.40;99.90;;;;;;5043972;28;20585;-89
2021/04/19 10:26:40;;;;;;;;;;;12.50;99.90;;;;;;5044353;28;19928;-86
2021/04/19 10:29:12;;;;;;;;;;;12.50;99.90;;;;;;5046085;28;19924;-87
2021/04/19 10:31:53;;;;;;;;;;;12.70;99.90;;;;;;5060167;28;19932;-88
2021/04/19 10:34:21;;;;;;;;;;;12.70;99.90;;;;;;5026150;28;19943;-87
2021/04/19 10:36:50;;;;;;;;;;;12.70;99.90;;;;;;5045633;28;19928;-86
2021/04/19 10:39:18;;;;;;;;;;;12.90;99.90;;;;;;5040788;28;19928;-87
2021/04/19 10:41:46;;;;;;;;;;;12.90;99.90;;;;;;5045698;28;20418;-86
2021/04/19 10:44:15;;;;;;;;;;;13.10;99.90;;;;;;5041162;28;19956;-87
2021/04/19 10:46:43;;;;;;;;;;;13.10;99.90;;;;;;5043062;28;19924;-87
2021/04/19 10:49:27;;;;;;;;;;;13.20;99.90;;;;;;5042964;28;19925;-88
2021/04/19 10:51:58;;;;;;;;;;;13.40;99.90;;;;;;5042298;28;19932;-87
2021/04/19 10:54:26;;;;;;;;;;;13.40;99.90;;;;;;5041307;28;19929;-88
2021/04/19 10:56:53;;;;;;;;;;;13.40;99.90;;;;;;5046644;28;19931;-87
2021/04/19 10:59:23;;;;;;;;;;;13.70;99.90;;;;;;5005342;28;19933;-87
2021/04/19 11:02:06;;;;;;;;;;;13.50;99.90;;;;;;5036191;28;19935;-88
2021/04/19 11:04:35;;;;;;;;;;;14.30;99.90;;;;;;5041616;28;20518;-87
2021/04/19 11:07:21;;;;;;;;;;;13.80;99.90;;;;;;5041981;28;20399;-87
2021/04/19 11:10:09;;;;;;;;;;;13.80;99.90;;;;;;5043824;28;20213;-87
2021/04/19 11:12:36;;;;;;;;;;;13.90;99.90;;;;;;5023356;28;20390;-87
2021/04/19 11:15:13;;;;;;;;;;;14.00;99.90;;;;;;5042132;28;20381;-88
2021/04/19 11:17:40;;;;;;;;;;;14.20;99.90;;;;;;5055474;28;20521;-88
2021/04/19 11:20:20;;;;;;;;;;;14.50;99.90;;;;;;5041646;28;19924;-87
2021/04/19 11:22:48;;;;;;;;;;;14.30;99.90;;;;;;5044793;28;19932;-86
2021/04/19 11:25:15;;;;;;;;;;;14.50;99.90;;;;;;5030015;28;19932;-87
2021/04/19 11:27:42;;;;;;;;;;;14.60;99.90;;;;;;5046706;28;19959;-87
2021/04/19 11:30:16;;;;;;;;;;;14.70;99.90;;;;;;5042539;28;19925;-87
2021/04/19 11:32:43;;;;;;;;;;;14.80;99.90;;;;;;5043450;28;20300;-89
2021/04/19 11:35:23;;;;;;;;;;;14.60;99.90;;;;;;5042960;28;19936;-86
2021/04/19 11:38:00;;;;;;;;;;;15.00;99.90;;;;;;5027774;28;20410;-87
2021/04/19 11:40:32;;;;;;;;;;;15.00;99.90;;;;;;5045034;28;19995;-87
2021/04/19 11:43:14;;;;;;;;;;;15.10;99.90;;;;;;5044787;28;19925;-87
2021/04/19 11:45:41;;;;;;;;;;;15.30;99.60;;;;;;5045201;28;20403;-87
2021/04/19 11:48:12;;;;;;;;;;;15.50;97.50;;;;;;5033549;28;20264;-88
2021/04/19 11:50:40;;;;;;;;;;;15.90;96.10;;;;;;5036272;28;19951;-89
2021/04/19 11:53:07;;;;;;;;;;;15.60;95.10;;;;;;5047152;28;20261;-88
2021/04/19 11:55:34;;;;;;;;;;;15.80;95.40;;;;;;5043617;28;20308;-87
2021/04/19 11:58:02;;;;;;;;;;;15.80;94.40;;;;;;5013411;28;20388;-87
2021/04/19 12:00:29;;;;;;;;;;;16.10;94.00;;;;;;5061233;28;19925;-89
2021/04/19 12:02:56;;;;;;;;;;;16.10;92.20;;;;;;5045010;28;20643;-88
2021/04/19 12:05:23;;;;;;;;;;;16.10;92.60;;;;;;5042714;28;19932;-88
2021/04/19 12:07:50;;;;;;;;;;;16.10;92.40;;;;;;5040413;28;19929;-88
2021/04/19 12:10:17;;;;;;;;;;;16.20;91.40;;;;;;5045820;28;19925;-86
2021/04/19 12:12:46;;;;;;;;;;;16.30;89.50;;;;;;5048817;28;19932;-87
2021/04/19 12:15:14;;;;;;;;;;;16.20;89.20;;;;;;5031036;28;20293;-87
2021/04/19 12:17:41;;;;;;;;;;;16.30;90.40;;;;;;5049543;28;19924;-87
2021/04/19 12:20:08;;;;;;;;;;;16.40;88.20;;;;;;5046637;28;19925;-88
2021/04/19 12:22:35;;;;;;;;;;;16.40;89.70;;;;;;5043246;28;19936;-89
2021/04/19 12:25:02;;;;;;;;;;;16.40;87.80;;;;;;5048631;28;19925;-87
2021/04/19 12:27:29;;;;;;;;;;;16.40;87.70;;;;;;5027615;28;19929;-87
2021/04/19 12:29:57;;;;;;;;;;;16.50;86.90;;;;;;5045562;28;19928;-89
2021/04/19 12:32:24;;;;;;;;;;;16.50;89.30;;;;;;5046960;28;19932;-87
2021/04/19 12:34:51;;;;;;;;;;;16.60;87.30;;;;;;5041135;28;20391;-87
2021/04/19 12:37:18;;;;;;;;;;;16.50;87.10;;;;;;5050362;28;20373;-88
2021/04/19 12:39:45;;;;;;;;;;;16.50;86.90;;;;;;5056095;28;19928;-87
2021/04/19 12:42:12;;;;;;;;;;;16.60;85.80;;;;;;5045194;28;19933;-88
2021/04/19 12:44:39;;;;;;;;;;;16.20;86.40;;;;;;5043829;28;19928;-88
2021/04/19 12:47:06;;;;;;;;;;;16.80;84.70;;;;;;5027291;28;19929;-87
2021/04/19 12:49:33;;;;;;;;;;;17.10;84.30;;;;;;5045485;28;20307;-87
2021/04/19 12:52:00;;;;;;;;;;;17.00;84.30;;;;;;5045732;28;19943;-86
2021/04/19 12:54:28;;;;;;;;;;;17.30;83.50;;;;;;5055876;28;19929;-88
2021/04/19 12:56:55;;;;;;;;;;;17.50;83.70;;;;;;5065191;28;19924;-88
2021/04/19 12:59:22;;;;;;;;;;;17.40;82.90;;;;;;5063525;28;19935;-88
2021/04/19 13:01:49;;;;;;;;;;;17.60;83.20;;;;;;5065518;28;19925;-88
2021/04/19 13:04:17;;;;;;;;;;;17.50;81.40;;;;;;5058515;28;19929;-89
2021/04/19 13:06:44;;;;;;;;;;;17.90;82.10;;;;;;5039018;28;20257;-88
2021/04/19 13:09:11;;;;;;;;;;;18.00;82.40;;;;;;5053084;28;19952;-87
2021/04/19 13:11:38;;;;;;;;;;;18.00;81.20;;;;;;5050819;28;19944;-88
2021/04/19 13:14:05;;;;;;;;;;;17.00;81.30;;;;;;5050164;28;19928;-86
2021/04/19 13:16:33;;;;;;;;;;;18.30;81.50;;;;;;5040721;28;20326;-89
2021/04/19 13:19:00;;;;;;;;;;;18.10;80.80;;;;;;5047839;28;20410;-88
2021/04/19 13:21:28;;;;;;;;;;;18.20;81.20;;;;;;5047574;28;19932;-87
2021/04/19 13:23:56;;;;;;;;;;;18.20;79.80;;;;;;5041308;28;19935;-88
2021/04/19 13:26:23;;;;;;;;;;;18.50;80.40;;;;;;5043794;28;19925;-89
2021/04/19 13:28:51;;;;;;;;;;;18.50;77.80;;;;;;5047621;28;19924;-89
2021/04/19 13:31:18;;;;;;;;;;;18.60;78.30;;;;;;5045308;28;19936;-88
2021/04/19 13:33:45;;;;;;;;;;;18.70;76.40;;;;;;5027491;28;19936;-86
2021/04/19 13:36:12;;;;;;;;;;;18.80;77.20;;;;;;5021615;28;19925;-88
2021/04/19 13:38:39;;;;;;;;;;;19.10;77.10;;;;;;5044719;28;19925;-90
2021/04/19 13:41:08;;;;;;;;;;;19.00;76.10;;;;;;5048145;28;20016;-88
2021/04/19 13:43:36;;;;;;;;;;;19.40;77.40;;;;;;5047111;28;19940;-89
2021/04/19 13:46:03;;;;;;;;;;;19.50;77.50;;;;;;5044037;28;19933;-90
2021/04/19 13:48:30;;;;;;;;;;;19.50;76.70;;;;;;5043498;28;19928;-90
2021/04/19 13:50:57;;;;;;;;;;;20.00;74.90;;;;;;5043903;28;19929;-88
2021/04/19 13:53:24;;;;;;;;;;;20.40;75.60;;;;;;5044860;28;19957;-89
2021/04/19 13:55:51;;;;;;;;;;;20.40;74.60;;;;;;5037965;28;19932;-89
2021/04/19 13:58:19;;;;;;;;;;;20.60;73.60;;;;;;5026473;28;19932;-89
2021/04/19 14:00:46;;;;;;;;;;;21.00;73.00;;;;;;5057151;28;19925;-86
2021/04/19 14:03:13;;;;;;;;;;;21.20;72.90;;;;;;5053137;28;20425;-87
2021/04/19 14:05:40;;;;;;;;;;;21.40;71.70;;;;;;5037312;28;19929;-87
2021/04/19 14:08:08;;;;;;;;;;;21.70;72.20;;;;;;5027825;28;19936;-89
2021/04/19 14:10:35;;;;;;;;;;;22.00;71.50;;;;;;5045809;28;19936;-89
2021/04/19 14:13:02;;;;;;;;;;;22.20;70.10;;;;;;5030210;28;19929;-87
2021/04/19 14:15:31;;;;;;;;;;;22.50;68.70;;;;;;5044746;28;19925;-87
2021/04/19 14:17:58;;;;;;;;;;;23.00;65.10;;;;;;5040352;28;19925;-88
2021/04/19 14:20:26;;;;;;;;;;;23.10;65.60;;;;;;5040098;28;20399;-84
2021/04/19 14:22:53;;;;;;;;;;;23.20;66.00;;;;;;5037126;28;20359;-84
2021/04/19 14:25:21;;;;;;;;;;;23.50;66.70;;;;;;5059288;28;19933;-84
2021/04/19 14:27:50;;;;;;;;;;;23.60;65.20;;;;;;5036558;28;19928;-85
2021/04/19 14:30:19;;;;;;;;;;;23.90;66.00;;;;;;5030158;28;20304;-86
2021/04/19 14:32:46;;;;;;;;;;;24.00;64.90;;;;;;5034845;28;19978;-87
2021/04/19 14:35:14;;;;;;;;;;;24.20;62.30;;;;;;5042660;28;20253;-88
2021/04/19 14:37:41;;;;;;;;;;;24.40;63.10;;;;;;5039313;28;19932;-86
2021/04/19 14:40:08;;;;;;;;;;;24.60;62.10;;;;;;5044032;28;19925;-87
2021/04/19 14:42:35;;;;;;;;;;;24.60;62.10;;;;;;5044660;28;19935;-87
2021/04/19 14:45:07;;;;;;;;;;;25.00;61.50;;;;;;5042055;28;19948;-85